createdAt,value
2023-01-26T00:01:45.066Z,21.53
2023-01-26T00:06:48.403Z,23.03
2023-01-26T00:11:52.876Z,24.73
2023-01-26T00:16:56.577Z,22.77
2023-01-26T00:22:00.081Z,24.20
2023-01-26T00:27:04.800Z,24.23
2023-01-26T00:38:49.155Z,24.37
2023-01-26T00:43:53.759Z,25.07
2023-01-26T00:48:57.470Z,28.03
2023-01-26T00:54:00.695Z,27.60
2023-01-26T00:59:05.986Z,28.97
2023-01-26T01:04:09.513Z,28.10
2023-01-26T01:09:13.193Z,27.07
2023-01-26T01:14:19.511Z,25.03
2023-01-26T01:19:23.669Z,27.20
2023-01-26T01:24:26.989Z,28.67
2023-01-26T01:29:31.539Z,28.13
2023-01-26T01:34:34.832Z,25.23
2023-01-26T01:39:38.074Z,28.83
2023-01-26T01:44:44.368Z,27.07
2023-01-26T01:49:52.576Z,29.60
2023-01-26T01:55:02.149Z,28.13
2023-01-26T02:00:11.747Z,30.07
2023-01-26T02:05:27.477Z,27.60
2023-01-26T02:10:32.196Z,26.37
2023-01-26T02:15:36.930Z,27.33
2023-01-26T02:20:47.662Z,26.90
2023-01-26T02:26:05.497Z,25.43
2023-01-26T02:31:11.332Z,27.53
2023-01-26T02:36:20.301Z,27.47
2023-01-26T02:41:38.839Z,25.43
2023-01-26T02:46:42.239Z,23.20
2023-01-26T02:51:45.567Z,24.00
2023-01-26T02:56:50.127Z,18.87
2023-01-26T03:01:54.676Z,21.50
2023-01-26T03:06:57.943Z,19.80
2023-01-26T03:12:02.721Z,18.20
2023-01-26T03:17:05.940Z,17.73
2023-01-26T03:22:28.249Z,18.83
2023-01-26T03:27:37.262Z,15.43
2023-01-26T03:32:40.822Z,15.10
2023-01-26T03:37:54.649Z,17.87
2023-01-26T03:43:17.125Z,15.30
2023-01-26T03:48:38.092Z,16.53
2023-01-26T03:53:58.833Z,17.33
2023-01-26T03:59:09.204Z,15.97
2023-01-26T04:04:30.082Z,14.83
2023-01-26T04:09:34.212Z,20.20
2023-01-26T04:14:56.415Z,14.10
2023-01-26T04:20:17.120Z,14.47
2023-01-26T04:25:22.293Z,17.43
2023-01-26T04:30:26.869Z,19.27
2023-01-26T04:35:30.078Z,16.30
2023-01-26T04:40:33.328Z,18.87
2023-01-26T04:45:37.854Z,16.93
2023-01-26T04:50:43.826Z,14.67
2023-01-26T04:55:49.304Z,14.30
2023-01-26T05:00:58.705Z,15.53
2023-01-26T05:06:05.132Z,20.50
2023-01-26T05:11:08.252Z,18.10
2023-01-26T05:16:14.430Z,15.93
2023-01-26T05:21:22.959Z,15.77
2023-01-26T05:26:26.648Z,15.33
2023-01-26T05:31:31.230Z,14.70
2023-01-26T05:36:34.734Z,16.47
2023-01-26T05:41:38.108Z,14.97
2023-01-26T05:46:45.753Z,16.87
2023-01-26T05:51:49.300Z,15.60
2023-01-26T05:56:53.407Z,16.20
2023-01-26T06:01:59.175Z,18.27
2023-01-26T06:07:02.272Z,15.63
2023-01-26T06:12:08.580Z,16.40
2023-01-26T06:17:14.670Z,15.33
2023-01-26T06:22:18.654Z,15.10
2023-01-26T06:27:22.006Z,16.10
2023-01-26T06:32:28.011Z,15.17
2023-01-26T06:37:31.265Z,15.63
2023-01-26T06:42:35.055Z,15.03
2023-01-26T06:47:39.630Z,14.90
2023-01-26T06:52:44.336Z,14.03
2023-01-26T06:57:47.901Z,14.40
2023-01-26T07:02:52.752Z,13.83
2023-01-26T07:07:55.944Z,14.10
2023-01-26T07:12:59.985Z,15.10
2023-01-26T07:18:04.996Z,13.07
2023-01-26T07:23:09.773Z,12.70
2023-01-26T07:28:13.451Z,11.53
2023-01-26T07:33:18.154Z,11.33
2023-01-26T07:38:21.620Z,12.27
2023-01-26T07:43:25.556Z,9.20
2023-01-26T07:48:31.538Z,10.63
2023-01-26T07:53:39.448Z,11.93
2023-01-26T07:58:42.723Z,11.57
2023-01-26T08:03:47.490Z,11.30
2023-01-26T08:08:53.706Z,9.53
2023-01-26T08:13:57.274Z,10.63
2023-01-26T08:19:02.954Z,11.83
2023-01-26T08:24:06.601Z,11.80
2023-01-26T08:29:10.095Z,10.90
2023-01-26T08:34:14.702Z,13.03
2023-01-26T08:39:18.056Z,13.43
2023-01-26T08:44:21.103Z,13.40
2023-01-26T08:49:25.689Z,12.93
2023-01-26T08:54:29.098Z,13.87
2023-01-26T08:59:32.394Z,13.13
2023-01-26T09:04:37.158Z,13.70
2023-01-26T09:09:41.697Z,12.20
2023-01-26T09:14:45.074Z,13.93
2023-01-26T09:19:49.767Z,12.53
2023-01-26T09:24:52.870Z,14.00
2023-01-26T09:29:56.545Z,13.90
2023-01-26T09:35:01.106Z,13.70
2023-01-26T09:40:04.529Z,12.57
2023-01-26T09:45:23.101Z,9.10
2023-01-26T09:50:31.930Z,10.73
2023-01-26T09:55:35.720Z,8.67
2023-01-26T10:00:45.402Z,11.87
2023-01-26T10:05:55.569Z,11.47
2023-01-26T10:11:03.113Z,10.57
2023-01-26T10:16:10.583Z,11.33
2023-01-26T10:21:16.925Z,9.60
2023-01-26T10:26:26.160Z,9.43
2023-01-26T10:31:32.621Z,11.20
2023-01-26T10:36:37.864Z,10.40
2023-01-26T10:41:41.463Z,9.33
2023-01-26T10:46:44.752Z,10.73
2023-01-26T10:52:08.416Z,10.23
2023-01-26T10:57:19.393Z,9.17
2023-01-26T11:02:27.720Z,8.30
2023-01-26T11:07:35.344Z,8.53
2023-01-26T11:12:38.445Z,11.67
2023-01-26T11:17:50.199Z,13.03
2023-01-26T11:23:03.122Z,13.40
2023-01-26T11:28:25.881Z,16.17
2023-01-26T11:33:37.780Z,14.33
2023-01-26T11:38:44.778Z,13.37
2023-01-26T11:44:08.030Z,14.93
2023-01-26T11:49:24.160Z,16.90
2023-01-26T11:54:47.330Z,20.13
2023-01-26T11:59:54.606Z,15.33
2023-01-26T12:05:01.116Z,17.63
2023-01-26T12:10:08.433Z,16.30
2023-01-26T12:15:15.275Z,22.07
2023-01-26T12:20:28.494Z,21.77
2023-01-26T12:25:36.811Z,22.27
2023-01-26T12:30:50.506Z,21.33
2023-01-26T12:36:09.933Z,28.90
2023-01-26T12:41:20.229Z,26.50
2023-01-26T12:46:24.862Z,22.63
2023-01-26T12:51:33.873Z,23.83
2023-01-26T12:56:43.612Z,28.67
2023-01-26T13:01:47.121Z,29.70
2023-01-26T13:07:03.324Z,28.63
2023-01-26T13:12:48.483Z,26.97
2023-01-26T13:17:57.189Z,25.20
2023-01-26T13:23:00.360Z,26.80
2023-01-26T13:28:13.792Z,28.63
2023-01-26T13:33:22.419Z,31.77
2023-01-26T13:38:34.987Z,27.77
2023-01-26T13:43:46.480Z,29.10
2023-01-26T13:48:51.519Z,31.60
2023-01-26T13:54:01.920Z,29.43
2023-01-26T13:59:13.392Z,31.63
2023-01-26T14:04:21.394Z,29.00
2023-01-26T14:09:27.659Z,34.43
2023-01-26T14:14:35.200Z,27.47
2023-01-26T14:19:41.802Z,21.53
2023-01-26T14:24:50.199Z,21.10
2023-01-26T14:29:54.770Z,18.70
2023-01-26T14:35:00.332Z,21.60
2023-01-26T14:40:21.777Z,21.43
2023-01-26T14:45:31.842Z,19.40
2023-01-26T14:50:37.194Z,19.47
2023-01-26T14:55:40.489Z,21.27
2023-01-26T15:00:49.801Z,19.87
2023-01-26T15:06:24.137Z,20.03
2023-01-26T15:11:47.697Z,17.63
2023-01-26T15:16:55.251Z,21.17
2023-01-26T15:21:58.412Z,17.10
2023-01-26T15:27:08.033Z,19.13
2023-01-26T15:32:32.428Z,15.87
2023-01-26T15:37:37.381Z,14.57
2023-01-26T15:42:41.439Z,16.33
2023-01-26T15:47:45.946Z,17.97
2023-01-26T15:52:49.095Z,16.20
2023-01-26T15:57:52.834Z,16.17
2023-01-26T16:02:58.611Z,15.93
2023-01-26T16:08:03.185Z,17.77
2023-01-26T16:13:10.757Z,17.70
2023-01-26T16:18:15.661Z,15.80
2023-01-26T16:23:23.828Z,17.30
2023-01-26T16:28:28.218Z,16.17
2023-01-26T16:33:33.172Z,16.07
2023-01-26T16:38:36.538Z,16.73
2023-01-26T16:43:42.025Z,16.80
2023-01-26T16:48:47.867Z,16.90
2023-01-26T16:53:51.492Z,17.87
2023-01-26T16:58:55.724Z,15.33
2023-01-26T17:04:04.382Z,14.63
2023-01-26T17:09:08.596Z,14.70
2023-01-26T17:14:13.293Z,15.10
2023-01-26T17:19:18.183Z,14.70
2023-01-26T17:24:22.871Z,15.17
2023-01-26T17:29:26.351Z,14.10
2023-01-26T17:34:30.864Z,15.40
2023-01-26T17:39:34.182Z,15.37
2023-01-26T17:44:37.570Z,18.57
2023-01-26T17:49:42.384Z,16.20
2023-01-26T17:54:45.527Z,22.47
2023-01-26T17:59:49.670Z,22.37
2023-01-26T18:04:54.455Z,18.00
2023-01-26T18:10:03.924Z,21.63
2023-01-26T18:15:08.540Z,22.20
2023-01-26T18:20:15.165Z,20.70
2023-01-26T18:25:21.108Z,16.23
2023-01-26T18:30:24.561Z,19.23
2023-01-26T18:35:29.465Z,20.67
2023-01-26T18:40:32.867Z,20.70
2023-01-26T18:45:36.475Z,21.53
2023-01-26T18:50:41.165Z,15.60
2023-01-26T18:55:44.455Z,16.33
2023-01-26T19:00:47.890Z,15.40
2023-01-26T19:05:52.974Z,15.80
2023-01-26T19:10:56.098Z,17.70
2023-01-26T19:15:59.290Z,19.57
2023-01-26T19:21:06.008Z,19.60
2023-01-26T19:26:14.228Z,22.93
2023-01-26T19:31:19.299Z,19.10
2023-01-26T19:36:24.975Z,20.93
2023-01-26T19:41:29.124Z,24.07
2023-01-26T19:46:32.524Z,16.93
2023-01-26T19:51:51.057Z,18.67
2023-01-26T19:56:54.428Z,16.37
2023-01-26T20:01:57.647Z,15.30
2023-01-26T20:07:14.340Z,16.70
2023-01-26T20:12:20.477Z,14.57
2023-01-26T20:17:26.962Z,16.83
2023-01-26T20:22:34.090Z,16.97
2023-01-26T20:27:37.470Z,18.00
2023-01-26T20:32:40.554Z,17.33
2023-01-26T20:37:48.251Z,20.77
2023-01-26T20:42:54.606Z,21.90
2023-01-26T20:47:59.695Z,19.80
2023-01-26T20:53:04.942Z,17.70
2023-01-26T20:58:08.893Z,19.10
2023-01-26T21:03:12.048Z,19.23
2023-01-26T21:08:16.619Z,20.23
2023-01-26T21:13:19.787Z,17.60
2023-01-26T21:18:23.235Z,18.27
2023-01-26T21:23:28.066Z,19.57
2023-01-26T21:28:32.270Z,17.83
2023-01-26T21:33:38.553Z,20.83
2023-01-26T21:38:48.684Z,18.20
2023-01-26T21:43:56.107Z,19.67
2023-01-26T21:49:00.091Z,20.13
2023-01-26T21:54:07.165Z,21.77
2023-01-26T21:59:14.733Z,23.37
2023-01-26T22:04:21.087Z,21.43
2023-01-26T22:09:27.468Z,21.73
2023-01-26T22:14:31.021Z,21.57
2023-01-26T22:19:34.232Z,20.30
2023-01-26T22:24:38.763Z,18.60
2023-01-26T22:29:43.290Z,22.80
2023-01-26T22:34:47.875Z,20.70
2023-01-26T22:39:52.404Z,19.57
2023-01-26T22:44:56.157Z,24.77
2023-01-26T22:49:59.894Z,18.33
2023-01-26T22:55:04.643Z,23.90
2023-01-26T23:00:09.759Z,20.53
2023-01-26T23:05:34.076Z,20.87
2023-01-26T23:10:39.183Z,22.63
2023-01-26T23:15:42.941Z,22.60
2023-01-26T23:20:46.115Z,24.50
2023-01-26T23:25:54.236Z,19.87
2023-01-26T23:30:58.856Z,21.37
2023-01-26T23:36:02.998Z,22.97
2023-01-26T23:41:08.637Z,21.60
2023-01-26T23:46:12.750Z,24.50
2023-01-26T23:51:16.667Z,24.43
2023-01-26T23:56:21.179Z,20.40
